createdAt,value
2023-10-22T00:02:37.398Z,0.75
2023-10-22T00:07:39.526Z,0.70
2023-10-22T00:12:41.545Z,0.80
2023-10-22T00:17:43.771Z,0.63
2023-10-22T00:22:45.863Z,0.77
2023-10-22T00:27:47.727Z,0.60
2023-10-22T00:32:49.709Z,1.02
2023-10-22T00:37:51.705Z,0.60
2023-10-22T00:42:56.076Z,0.60
2023-10-22T00:47:58.030Z,0.80
2023-10-22T00:53:00.280Z,1.08
2023-10-22T00:58:04.144Z,0.75
2023-10-22T01:03:07.354Z,1.10
2023-10-22T01:08:10.456Z,1.65
2023-10-22T01:13:15.966Z,0.77
2023-10-22T01:18:18.502Z,0.77
2023-10-22T01:23:21.869Z,0.70
2023-10-22T01:28:23.759Z,1.05
2023-10-22T01:33:26.967Z,0.90
2023-10-22T01:38:29.177Z,0.85
2023-10-22T01:43:31.071Z,0.95
2023-10-22T01:48:33.134Z,0.70
2023-10-22T01:53:37.565Z,0.77
2023-10-22T01:58:40.239Z,0.95
2023-10-22T02:03:46.785Z,0.75
2023-10-22T02:08:48.922Z,0.90
2023-10-22T02:13:50.846Z,0.70
2023-10-22T02:18:52.730Z,0.70
2023-10-22T02:23:55.052Z,0.73
2023-10-22T02:28:57.039Z,1.10
2023-10-22T02:34:07.002Z,0.98
2023-10-22T02:39:09.765Z,1.00
2023-10-22T02:44:11.701Z,0.82
2023-10-22T02:49:13.914Z,0.63
2023-10-22T02:54:16.373Z,0.90
2023-10-22T02:59:18.355Z,1.20
2023-10-22T03:04:20.414Z,0.82
2023-10-22T03:09:22.346Z,1.00
2023-10-22T03:14:24.211Z,0.70
2023-10-22T03:19:26.196Z,1.08
2023-10-22T03:24:28.308Z,0.90
2023-10-22T03:29:30.255Z,0.95
2023-10-22T03:34:32.204Z,1.00
2023-10-22T03:39:34.546Z,0.80
2023-10-22T03:44:36.607Z,0.68
2023-10-22T03:49:38.861Z,1.08
2023-10-22T03:54:40.847Z,1.13
2023-10-22T03:59:42.725Z,1.25
2023-10-22T04:04:44.760Z,0.95
2023-10-22T04:09:48.181Z,1.20
2023-10-22T04:14:50.371Z,1.30
2023-10-22T04:19:52.296Z,0.90
2023-10-22T04:24:54.427Z,0.88
2023-10-22T04:29:56.914Z,0.63
2023-10-22T04:34:58.840Z,1.38
2023-10-22T04:40:00.780Z,0.90
2023-10-22T04:45:02.923Z,0.82
2023-10-22T04:50:06.598Z,0.77
2023-10-22T04:55:10.097Z,0.80
2023-10-22T05:00:12.488Z,0.70
2023-10-22T05:05:14.809Z,1.10
2023-10-22T05:10:17.586Z,0.90
2023-10-22T05:15:20.296Z,0.85
2023-10-22T05:20:22.454Z,1.17
2023-10-22T05:25:24.396Z,0.80
2023-10-22T05:30:26.318Z,1.15
2023-10-22T05:35:28.950Z,1.50
2023-10-22T05:40:37.345Z,0.80
2023-10-22T05:45:39.614Z,0.95
2023-10-22T05:50:41.537Z,0.63
2023-10-22T05:55:43.445Z,0.93
2023-10-22T06:00:49.761Z,0.70
2023-10-22T06:05:51.651Z,1.02
2023-10-22T06:10:53.793Z,0.60
2023-10-22T06:15:57.709Z,0.80
2023-10-22T06:20:59.637Z,0.80
2023-10-22T06:26:01.541Z,0.70
2023-10-22T06:31:08.330Z,0.55
2023-10-22T06:36:19.747Z,1.10
2023-10-22T06:41:23.359Z,0.70
2023-10-22T06:46:25.308Z,0.95
2023-10-22T06:51:27.352Z,0.90
2023-10-22T06:56:29.272Z,0.82
2023-10-22T07:01:31.254Z,0.77
2023-10-22T07:06:33.768Z,0.70
2023-10-22T07:11:36.753Z,1.10
2023-10-22T07:16:38.761Z,0.60
2023-10-22T07:21:41.118Z,0.80
2023-10-22T07:26:43.264Z,0.77
2023-10-22T07:31:47.536Z,0.60
2023-10-22T07:36:49.776Z,0.60
2023-10-22T07:41:51.758Z,0.60
2023-10-22T07:46:53.643Z,0.70
2023-10-22T07:51:55.536Z,0.60
2023-10-22T07:56:58.845Z,0.80
2023-10-22T08:02:00.890Z,1.20
2023-10-22T08:07:02.956Z,0.88
2023-10-22T08:12:06.893Z,0.65
2023-10-22T08:17:09.023Z,0.50
2023-10-22T08:22:10.928Z,0.50
2023-10-22T08:27:13.071Z,0.60
2023-10-22T08:32:15.056Z,0.80
2023-10-22T08:37:17.658Z,0.40
2023-10-22T08:42:24.332Z,0.50
2023-10-22T08:47:26.513Z,0.60
2023-10-22T08:52:28.881Z,0.65
2023-10-22T08:57:31.285Z,0.60
2023-10-22T09:02:33.272Z,0.68
2023-10-22T09:07:56.735Z,0.80
2023-10-22T09:13:10.664Z,0.90
2023-10-22T09:18:13.499Z,1.50
2023-10-22T09:23:23.554Z,0.95
2023-10-22T09:28:27.993Z,0.80
2023-10-22T09:33:40.994Z,0.80
2023-10-22T09:38:47.860Z,1.10
2023-10-22T09:43:53.986Z,0.57
2023-10-22T09:48:59.784Z,1.05
2023-10-22T09:54:07.507Z,1.23
2023-10-22T09:59:12.861Z,1.20
2023-10-22T10:04:15.191Z,1.00
2023-10-22T10:09:17.667Z,0.80
2023-10-22T10:14:38.474Z,0.50
2023-10-22T10:24:42.291Z,0.43
2023-10-22T10:30:21.656Z,0.95
2023-10-22T10:35:25.358Z,0.50
2023-10-22T10:40:46.878Z,0.75
2023-10-22T10:46:23.971Z,0.60
2023-10-22T10:51:26.660Z,0.50
2023-10-22T10:56:52.076Z,0.70
2023-10-22T11:01:58.722Z,0.60
2023-10-22T11:07:13.518Z,0.47
2023-10-22T11:12:25.985Z,0.50
2023-10-22T11:17:29.044Z,0.32
2023-10-22T11:22:31.177Z,0.40
2023-10-22T11:27:33.690Z,0.50
2023-10-22T11:32:39.868Z,0.68
2023-10-22T11:37:42.905Z,0.43
2023-10-22T11:42:45.051Z,0.40
2023-10-22T11:47:47.038Z,0.60
2023-10-22T11:52:51.149Z,0.65
2023-10-22T11:57:53.037Z,0.60
2023-10-22T12:02:55.693Z,1.10
2023-10-22T12:07:57.750Z,0.88
2023-10-22T12:12:59.730Z,1.20
2023-10-22T12:18:01.740Z,1.20
2023-10-22T12:23:04.005Z,0.70
2023-10-22T12:28:06.038Z,0.70
2023-10-22T12:33:10.355Z,0.50
2023-10-22T12:38:12.341Z,0.65
2023-10-22T12:43:14.417Z,0.80
2023-10-22T12:48:16.547Z,0.90
2023-10-22T12:53:18.526Z,0.50
2023-10-22T12:58:21.939Z,0.70
2023-10-22T13:03:24.021Z,0.98
2023-10-22T13:08:27.013Z,0.60
2023-10-22T13:13:28.918Z,0.85
2023-10-22T13:18:30.838Z,0.40
2023-10-22T13:23:32.774Z,0.77
2023-10-22T13:28:34.634Z,0.50
2023-10-22T13:33:39.279Z,0.80
2023-10-22T13:38:41.214Z,0.60
2023-10-22T13:43:43.140Z,0.73
2023-10-22T13:48:45.281Z,0.68
2023-10-22T13:53:47.264Z,0.60
2023-10-22T13:58:49.195Z,0.90
2023-10-22T14:03:51.775Z,0.60
2023-10-22T14:08:55.588Z,0.77
2023-10-22T14:13:59.655Z,0.40
2023-10-22T14:19:01.624Z,0.73
2023-10-22T14:24:03.637Z,0.70
2023-10-22T14:29:05.619Z,0.65
2023-10-22T14:34:15.960Z,0.90
2023-10-22T14:39:26.992Z,0.73
2023-10-22T14:44:29.095Z,1.27
2023-10-22T14:49:31.116Z,0.65
2023-10-22T14:54:33.297Z,0.65
2023-10-22T14:59:35.335Z,0.70
2023-10-22T15:04:37.742Z,0.82
2023-10-22T15:09:42.149Z,0.70
2023-10-22T15:14:45.652Z,0.60
2023-10-22T15:19:47.847Z,0.70
2023-10-22T15:24:49.772Z,0.90
2023-10-22T15:29:51.775Z,0.90
2023-10-22T15:34:53.763Z,0.80
2023-10-22T15:39:55.716Z,0.70
2023-10-22T15:44:57.610Z,0.80
2023-10-22T15:50:01.045Z,0.60
2023-10-22T15:55:03.341Z,0.47
2023-10-22T16:00:06.310Z,0.55
2023-10-22T16:05:11.786Z,0.52
2023-10-22T16:10:14.736Z,0.70
2023-10-22T16:15:18.494Z,0.65
2023-10-22T16:20:20.988Z,0.60
2023-10-22T16:25:23.136Z,0.80
2023-10-22T16:30:25.064Z,1.27
2023-10-22T16:35:27.074Z,1.50
2023-10-22T16:40:29.016Z,2.50
2023-10-22T16:45:30.989Z,1.75
2023-10-22T16:50:33.377Z,2.28
2023-10-22T16:55:35.979Z,2.83
2023-10-22T17:00:37.983Z,2.28
2023-10-22T17:05:40.303Z,0.85
2023-10-22T17:10:42.188Z,0.65
2023-10-22T17:15:44.300Z,0.75
2023-10-22T17:20:46.324Z,0.60
2023-10-22T17:25:49.920Z,0.60
2023-10-22T17:30:52.944Z,0.77
2023-10-22T17:35:57.116Z,0.70
2023-10-22T17:41:00.102Z,0.50
2023-10-22T17:46:02.041Z,0.90
2023-10-22T17:51:04.978Z,1.38
2023-10-22T17:56:11.674Z,1.08
2023-10-22T18:01:13.753Z,1.30
2023-10-22T18:06:17.276Z,3.40
2023-10-22T18:11:23.547Z,5.32
2023-10-22T18:16:25.977Z,2.13
2023-10-22T18:21:28.011Z,1.25
2023-10-22T18:26:31.020Z,1.00
2023-10-22T18:31:33.073Z,0.90
2023-10-22T18:36:35.056Z,0.80
2023-10-22T18:41:37.173Z,0.65
2023-10-22T18:46:39.479Z,0.63
2023-10-22T18:51:41.649Z,0.98
2023-10-22T18:56:44.209Z,1.10
2023-10-22T19:01:47.594Z,1.75
2023-10-22T19:06:49.524Z,1.70
2023-10-22T19:11:51.424Z,1.50
2023-10-22T19:16:53.993Z,1.33
2023-10-22T19:21:57.909Z,1.00
2023-10-22T19:27:01.063Z,1.10
2023-10-22T19:32:04.216Z,0.80
2023-10-22T19:37:06.632Z,0.80
2023-10-22T19:42:09.606Z,0.80
2023-10-22T19:47:11.734Z,0.80
2023-10-22T19:52:25.659Z,0.90
2023-10-22T19:57:32.005Z,1.05
2023-10-22T20:02:34.050Z,0.73
2023-10-22T20:07:36.179Z,0.93
2023-10-22T20:12:38.153Z,0.82
2023-10-22T20:17:45.381Z,0.70
2023-10-22T20:22:47.283Z,1.33
2023-10-22T20:27:49.251Z,1.40
2023-10-22T20:32:51.222Z,1.38
2023-10-22T20:37:54.544Z,1.00
2023-10-22T20:42:56.432Z,1.17
2023-10-22T20:47:58.444Z,1.13
2023-10-22T20:53:00.510Z,0.77
2023-10-22T20:58:02.800Z,1.30
2023-10-22T21:03:05.117Z,1.20
2023-10-22T21:08:07.139Z,1.20
2023-10-22T21:13:09.028Z,1.33
2023-10-22T21:18:11.331Z,1.77
2023-10-22T21:23:15.071Z,1.80
2023-10-22T21:28:17.534Z,2.00
2023-10-22T21:33:24.532Z,1.40
2023-10-22T21:38:26.793Z,1.50
2023-10-22T21:43:29.000Z,1.30
2023-10-22T21:48:31.075Z,1.55
2023-10-22T21:53:33.872Z,1.50
2023-10-22T21:58:35.889Z,1.85
2023-10-22T22:03:38.117Z,1.38
2023-10-22T22:08:40.172Z,1.30
2023-10-22T22:13:42.067Z,1.25
2023-10-22T22:18:43.928Z,1.65
2023-10-22T22:23:45.797Z,1.52
2023-10-22T22:28:47.784Z,1.10
2023-10-22T22:33:49.780Z,1.40
2023-10-22T22:38:51.784Z,1.00
2023-10-22T22:43:54.008Z,1.20
2023-10-22T22:48:58.580Z,1.05
2023-10-22T22:54:00.652Z,0.90
2023-10-22T22:59:02.592Z,1.77
2023-10-22T23:04:04.676Z,1.10
2023-10-22T23:09:06.705Z,1.00
2023-10-22T23:14:08.623Z,2.15
2023-10-22T23:19:10.530Z,1.40
2023-10-22T23:24:12.424Z,1.30
2023-10-22T23:29:14.352Z,1.33
2023-10-22T23:34:16.578Z,1.48
2023-10-22T23:39:18.491Z,1.35
2023-10-22T23:44:20.382Z,2.05
2023-10-22T23:49:22.631Z,1.00
2023-10-22T23:54:24.616Z,0.90
2023-10-22T23:59:26.568Z,1.20
